Time;durP1;ratioP1;P1;durP2;ratioP2;P2;SDS_P1;SDS_P2;PMS_P1;PMS_P2;Temp;Humidity;BMP_temperature;BMP_pressure;BME280_temperature;BME280_humidity;BME280_pressure;Samples;Min_cycle;Max_cycle;Signal;HPM_P1;HPM_P2
2023/09/25 00:00:49;;;;;;;3.30;1.15;;;14.60;99.90;;;;;;5091480;28;20029;-53
2023/09/25 00:03:15;;;;;;;3.70;1.00;;;14.70;99.90;;;;;;5091608;28;20028;-53
2023/09/25 00:05:41;;;;;;;1.85;0.65;;;14.80;99.90;;;;;;5091798;28;20124;-53
2023/09/25 00:08:07;;;;;;;1.08;0.60;;;14.80;99.90;;;;;;5092010;28;20074;-51
2023/09/25 00:10:32;;;;;;;1.77;0.70;;;14.90;99.90;;;;;;5091080;28;20085;-51
2023/09/25 00:12:59;;;;;;;1.00;0.60;;;15.00;99.90;;;;;;5091531;28;20032;-53
2023/09/25 00:15:25;;;;;;;1.63;0.90;;;15.00;99.90;;;;;;5091395;28;20117;-53
2023/09/25 00:17:51;;;;;;;1.30;0.93;;;15.00;99.90;;;;;;5091362;28;20048;-50
2023/09/25 00:20:21;;;;;;;0.75;0.60;;;15.00;99.90;;;;;;5091020;28;20035;-53
2023/09/25 00:22:46;;;;;;;1.83;1.05;;;15.00;99.90;;;;;;5091247;28;20085;-52
2023/09/25 00:25:12;;;;;;;1.52;0.90;;;15.00;99.90;;;;;;5091796;28;20443;-53
2023/09/25 00:27:38;;;;;;;2.28;0.80;;;15.10;99.90;;;;;;5091167;28;20032;-53
2023/09/25 00:30:08;;;;;;;0.95;0.80;;;15.10;99.90;;;;;;5072519;28;20027;-51
2023/09/25 00:32:35;;;;;;;1.25;0.70;;;15.10;99.90;;;;;;5073580;28;20032;-52
2023/09/25 00:35:05;;;;;;;0.88;0.60;;;15.10;99.90;;;;;;5091340;28;20032;-49
2023/09/25 00:37:31;;;;;;;1.17;0.70;;;15.10;99.90;;;;;;5072809;28;20024;-49
2023/09/25 00:39:58;;;;;;;1.70;0.80;;;15.20;99.90;;;;;;5072767;28;20032;-51
2023/09/25 00:42:26;;;;;;;2.00;0.95;;;15.20;99.90;;;;;;5073294;28;20058;-49
2023/09/25 00:44:52;;;;;;;1.30;0.70;;;15.20;99.90;;;;;;5072796;28;20036;-49
2023/09/25 00:47:18;;;;;;;1.02;0.70;;;15.10;99.90;;;;;;5072742;28;20035;-49
2023/09/25 00:49:44;;;;;;;1.90;0.70;;;15.10;99.90;;;;;;5072370;28;20488;-52
2023/09/25 00:52:11;;;;;;;1.10;0.60;;;15.10;99.90;;;;;;5090861;28;20028;-53
2023/09/25 00:54:36;;;;;;;2.47;0.80;;;15.00;99.90;;;;;;5072599;28;20465;-53
2023/09/25 00:57:03;;;;;;;1.58;0.77;;;15.00;99.90;;;;;;5090585;28;20030;-51
2023/09/25 00:59:28;;;;;;;0.85;0.73;;;15.00;99.90;;;;;;5072447;28;20130;-53
2023/09/25 01:01:54;;;;;;;1.63;0.70;;;15.00;99.90;;;;;;5072427;28;20162;-52
2023/09/25 01:04:23;;;;;;;2.47;0.80;;;15.10;99.90;;;;;;5090691;28;20384;-53
2023/09/25 01:06:49;;;;;;;2.72;0.88;;;15.10;99.90;;;;;;5072651;28;20036;-52
2023/09/25 01:09:14;;;;;;;1.83;0.60;;;15.10;99.90;;;;;;5072688;28;20042;-54
2023/09/25 01:11:40;;;;;;;1.63;0.80;;;15.10;99.90;;;;;;5072502;28;20032;-53
2023/09/25 01:14:06;;;;;;;1.70;0.80;;;15.10;99.90;;;;;;5090680;28;20134;-53
2023/09/25 01:16:32;;;;;;;1.00;0.70;;;15.10;99.90;;;;;;5072823;28;20024;-53
2023/09/25 01:18:57;;;;;;;0.85;0.70;;;15.10;99.90;;;;;;5072520;28;20020;-53
2023/09/25 01:21:24;;;;;;;1.20;0.70;;;15.10;99.90;;;;;;5072260;28;20396;-52
2023/09/25 01:23:50;;;;;;;1.73;0.60;;;15.00;99.90;;;;;;5090796;28;20350;-53
2023/09/25 01:26:16;;;;;;;1.52;0.60;;;15.00;99.90;;;;;;5072434;28;20032;-53
2023/09/25 01:28:41;;;;;;;1.05;0.80;;;15.10;99.90;;;;;;5090208;28;20028;-53
2023/09/25 01:31:07;;;;;;;1.63;0.50;;;15.00;99.90;;;;;;5072220;28;20362;-52
2023/09/25 01:33:33;;;;;;;1.27;0.70;;;15.00;99.90;;;;;;5090494;28;20443;-52
2023/09/25 01:35:59;;;;;;;1.55;0.55;;;15.00;99.90;;;;;;5072333;28;20102;-53
2023/09/25 01:38:25;;;;;;;1.08;0.60;;;14.90;99.90;;;;;;5072216;28;20054;-53
2023/09/25 01:40:50;;;;;;;0.75;0.60;;;14.90;99.90;;;;;;5072429;28;20105;-49
2023/09/25 01:43:17;;;;;;;1.23;0.70;;;14.90;99.90;;;;;;5072264;28;20029;-50
2023/09/25 01:45:43;;;;;;;1.30;0.80;;;14.90;99.90;;;;;;5072169;28;20036;-52
2023/09/25 01:48:08;;;;;;;0.98;0.70;;;14.80;99.90;;;;;;5072131;28;20161;-51
2023/09/25 01:50:34;;;;;;;1.25;0.77;;;14.90;99.90;;;;;;5090015;28;20038;-51
2023/09/25 01:53:03;;;;;;;1.15;0.60;;;14.80;99.90;;;;;;5072172;28;20028;-54
2023/09/25 01:55:36;;;;;;;1.53;0.63;;;14.90;99.90;;;;;;5072124;28;20111;-49
2023/09/25 01:58:03;;;;;;;1.23;0.52;;;14.80;99.90;;;;;;5072087;28;20388;-48
2023/09/25 02:00:29;;;;;;;1.52;0.70;;;14.80;99.90;;;;;;5071679;28;20020;-48
2023/09/25 02:02:54;;;;;;;1.80;0.93;;;14.80;99.90;;;;;;5090117;28;20032;-52
2023/09/25 02:05:20;;;;;;;1.23;0.80;;;14.80;99.90;;;;;;5072021;28;20067;-51
2023/09/25 02:07:46;;;;;;;2.05;0.88;;;14.80;99.90;;;;;;5073483;28;20089;-50
2023/09/25 02:10:11;;;;;;;2.55;1.08;;;14.80;99.90;;;;;;5093532;28;20038;-50
2023/09/25 02:12:37;;;;;;;1.33;0.80;;;14.80;99.90;;;;;;5075634;28;20085;-51
2023/09/25 02:15:05;;;;;;;2.17;0.98;;;14.80;99.90;;;;;;5075536;28;20381;-53
2023/09/25 02:17:32;;;;;;;1.07;0.67;;;14.70;99.90;;;;;;5075479;28;20403;-51
2023/09/25 02:20:13;;;;;;;1.20;0.80;;;14.70;99.90;;;;;;5075100;28;20066;-52
2023/09/25 02:22:40;;;;;;;1.60;0.82;;;14.70;99.90;;;;;;5075320;28;20117;-51
2023/09/25 02:25:06;;;;;;;0.93;0.70;;;14.60;99.90;;;;;;5075430;28;20510;-53
2023/09/25 02:27:31;;;;;;;2.75;0.73;;;14.50;99.90;;;;;;5075312;28;20043;-53
2023/09/25 02:29:57;;;;;;;2.55;0.70;;;14.50;99.90;;;;;;5074962;28;20059;-53
2023/09/25 02:32:23;;;;;;;2.03;0.70;;;14.50;99.90;;;;;;5075402;28;20127;-49
2023/09/25 02:34:50;;;;;;;1.75;0.52;;;14.30;99.90;;;;;;5075255;28;20035;-52
2023/09/25 02:37:17;;;;;;;1.50;0.80;;;14.30;99.90;;;;;;5075217;28;20028;-51
2023/09/25 02:39:42;;;;;;;1.83;0.77;;;14.20;99.90;;;;;;5074986;28;20024;-49
2023/09/25 02:42:09;;;;;;;7.65;3.25;;;14.10;99.90;;;;;;5075311;28;20432;-50
2023/09/25 02:44:34;;;;;;;4.65;1.75;;;14.00;99.90;;;;;;5075166;28;20032;-54
2023/09/25 02:47:00;;;;;;;6.20;2.60;;;13.90;99.90;;;;;;5093388;28;20035;-54
2023/09/25 02:49:26;;;;;;;3.10;1.67;;;13.90;99.90;;;;;;5058291;28;20035;-50
2023/09/25 02:51:51;;;;;;;3.53;1.08;;;13.80;99.90;;;;;;5075054;28;20043;-55
2023/09/25 02:54:17;;;;;;;1.23;0.73;;;13.80;99.90;;;;;;5075156;28;20038;-49
2023/09/25 02:56:43;;;;;;;1.23;0.85;;;13.80;99.90;;;;;;5093483;28;20065;-53
2023/09/25 02:59:09;;;;;;;0.95;0.65;;;13.70;99.90;;;;;;5074690;28;20028;-52
2023/09/25 03:01:34;;;;;;;1.75;0.75;;;13.80;99.90;;;;;;5075021;28;20032;-51
2023/09/25 03:04:00;;;;;;;1.70;0.88;;;13.70;99.90;;;;;;5075145;28;20039;-54
2023/09/25 03:06:25;;;;;;;1.60;1.02;;;13.80;99.90;;;;;;5093166;28;20036;-53
2023/09/25 03:08:52;;;;;;;1.25;0.70;;;13.70;99.90;;;;;;5074656;28;20063;-53
2023/09/25 03:11:17;;;;;;;2.08;0.90;;;13.60;99.90;;;;;;5074528;28;20127;-49
2023/09/25 03:13:45;;;;;;;2.65;1.10;;;13.50;99.90;;;;;;5074474;28;20030;-54
2023/09/25 03:16:14;;;;;;;2.13;0.95;;;13.50;99.90;;;;;;5074663;28;20032;-52
2023/09/25 03:18:41;;;;;;;2.03;0.85;;;13.40;99.90;;;;;;5074132;28;20020;-49
2023/09/25 03:21:12;;;;;;;1.15;0.85;;;13.40;99.90;;;;;;5074313;28;20040;-53
2023/09/25 03:23:41;;;;;;;1.30;0.80;;;13.30;99.90;;;;;;5092462;28;20411;-51
2023/09/25 03:26:14;;;;;;;1.83;1.00;;;13.20;99.90;;;;;;5074378;28;20046;-54
2023/09/25 03:28:40;;;;;;;2.55;0.95;;;13.10;99.90;;;;;;5092160;28;20396;-53
2023/09/25 03:31:06;;;;;;;1.17;0.85;;;13.10;99.90;;;;;;5092283;28;20049;-52
2023/09/25 03:33:32;;;;;;;1.85;0.80;;;13.00;99.90;;;;;;5074085;28;20020;-53
2023/09/25 03:35:57;;;;;;;1.87;0.90;;;12.90;99.90;;;;;;5074213;28;20373;-50
2023/09/25 03:38:23;;;;;;;2.70;1.00;;;12.80;99.90;;;;;;5091982;28;20069;-49
2023/09/25 03:40:49;;;;;;;2.80;1.00;;;12.70;99.90;;;;;;5073672;28;20089;-52
2023/09/25 03:43:16;;;;;;;1.33;0.80;;;12.60;99.90;;;;;;5073816;28;20400;-52
2023/09/25 03:45:43;;;;;;;2.63;1.20;;;12.60;99.90;;;;;;5074013;28;20036;-49
2023/09/25 03:48:08;;;;;;;1.33;0.90;;;12.50;99.90;;;;;;5092207;28;20279;-49
2023/09/25 03:50:34;;;;;;;1.35;0.90;;;12.50;99.90;;;;;;5073422;28;20484;-48
2023/09/25 03:53:02;;;;;;;0.93;0.80;;;12.40;99.90;;;;;;5092022;28;20059;-49
2023/09/25 03:55:28;;;;;;;3.13;0.77;;;12.50;99.90;;;;;;5073584;28;20024;-49
2023/09/25 03:57:54;;;;;;;1.47;0.90;;;12.50;99.90;;;;;;5073493;28;20039;-48
2023/09/25 04:00:20;;;;;;;2.13;0.70;;;12.60;99.90;;;;;;5091348;28;20397;-49
2023/09/25 04:02:46;;;;;;;2.23;0.90;;;12.60;99.90;;;;;;5091891;28;20115;-51
2023/09/25 04:05:12;;;;;;;1.90;0.80;;;12.60;99.90;;;;;;5091946;28;20036;-52
2023/09/25 04:07:38;;;;;;;3.33;1.03;;;12.70;99.90;;;;;;5091498;28;20039;-53
2023/09/25 04:10:07;;;;;;;1.33;0.80;;;12.70;99.90;;;;;;5091097;28;20044;-53
2023/09/25 04:12:34;;;;;;;4.20;1.10;;;12.70;99.90;;;;;;5091669;28;20397;-51
2023/09/25 04:15:00;;;;;;;2.10;0.87;;;12.70;99.90;;;;;;5091575;28;20434;-53
2023/09/25 04:17:28;;;;;;;4.10;0.97;;;12.90;99.90;;;;;;5091240;28;20123;-53
2023/09/25 04:19:53;;;;;;;2.43;0.90;;;12.80;99.90;;;;;;5091537;28;20457;-52
2023/09/25 04:22:20;;;;;;;1.33;0.70;;;12.90;99.90;;;;;;5091568;28;20061;-50
2023/09/25 04:24:46;;;;;;;1.73;0.90;;;12.90;99.90;;;;;;5091177;28;20032;-54
2023/09/25 04:27:12;;;;;;;1.93;0.90;;;12.90;99.90;;;;;;5091265;28;20024;-53
2023/09/25 04:29:38;;;;;;;26.30;9.53;;;12.90;99.90;;;;;;5090475;28;20023;-52
2023/09/25 04:32:04;;;;;;;5.97;1.63;;;13.00;99.90;;;;;;5091100;28;20036;-53
2023/09/25 04:34:30;;;;;;;1.93;1.10;;;13.00;99.90;;;;;;5091134;28;20032;-51
2023/09/25 04:36:58;;;;;;;1.33;0.75;;;13.10;99.90;;;;;;5091203;28;20024;-52
2023/09/25 04:39:24;;;;;;;1.43;0.70;;;13.10;99.90;;;;;;5090832;28;20066;-52
2023/09/25 04:41:50;;;;;;;0.98;0.82;;;13.10;99.90;;;;;;5090949;28;20051;-53
2023/09/25 04:44:16;;;;;;;1.83;0.80;;;13.10;99.90;;;;;;5091042;28;20086;-52
2023/09/25 04:46:41;;;;;;;1.08;0.75;;;13.10;99.90;;;;;;5091044;28;20077;-54
2023/09/25 04:49:08;;;;;;;1.27;0.70;;;13.20;99.90;;;;;;5090779;28;20384;-53
2023/09/25 04:51:34;;;;;;;1.83;0.75;;;13.20;99.90;;;;;;5090700;28;20043;-50
2023/09/25 04:54:00;;;;;;;1.27;0.80;;;13.20;99.90;;;;;;5090748;28;20032;-51
2023/09/25 04:56:27;;;;;;;1.60;1.05;;;13.30;99.90;;;;;;5072703;28;20496;-52
2023/09/25 04:58:53;;;;;;;1.80;0.90;;;13.30;99.90;;;;;;5090588;28;20434;-51
2023/09/25 05:01:19;;;;;;;4.88;0.80;;;13.30;99.90;;;;;;5090596;28;20111;-49
2023/09/25 05:03:45;;;;;;;2.88;1.10;;;13.40;99.90;;;;;;5090740;28;20394;-52
2023/09/25 05:06:13;;;;;;;2.15;0.80;;;13.40;99.90;;;;;;5090772;28;20036;-49
2023/09/25 05:08:39;;;;;;;1.23;0.88;;;13.40;99.90;;;;;;5090389;28;20127;-49
2023/09/25 05:11:08;;;;;;;1.63;0.80;;;13.40;99.90;;;;;;5090609;28;20170;-52
2023/09/25 05:13:34;;;;;;;1.80;0.80;;;13.40;99.90;;;;;;5090786;28;20032;-53
2023/09/25 05:16:03;;;;;;;1.40;0.85;;;13.40;99.90;;;;;;5090625;28;20028;-53
2023/09/25 05:18:32;;;;;;;1.13;0.73;;;13.50;99.90;;;;;;5090529;28;20032;-50
2023/09/25 05:20:58;;;;;;;2.30;0.90;;;13.50;99.90;;;;;;5072822;28;20392;-53
2023/09/25 05:23:24;;;;;;;2.95;1.20;;;13.50;99.90;;;;;;5090622;28;20032;-49
2023/09/25 05:25:50;;;;;;;2.63;0.90;;;13.50;99.90;;;;;;5090814;28;20025;-49
2023/09/25 05:28:15;;;;;;;3.47;1.10;;;13.50;99.90;;;;;;5090632;28;20032;-53
2023/09/25 05:30:41;;;;;;;1.52;0.80;;;13.50;99.90;;;;;;5090144;28;20028;-52
2023/09/25 05:33:06;;;;;;;2.17;1.00;;;13.40;99.90;;;;;;5090491;28;20092;-53
2023/09/25 05:35:32;;;;;;;1.15;0.75;;;13.50;99.90;;;;;;5090390;28;20039;-53
2023/09/25 05:37:58;;;;;;;4.63;0.90;;;13.50;99.90;;;;;;5090296;28;20024;-53
2023/09/25 05:40:23;;;;;;;2.63;1.30;;;13.50;99.90;;;;;;5090034;28;20025;-52
2023/09/25 05:42:50;;;;;;;10.52;3.38;;;13.50;99.90;;;;;;5092105;28;20028;-53
2023/09/25 05:45:17;;;;;;;2.92;1.67;;;13.50;99.90;;;;;;5076259;28;20127;-54
2023/09/25 05:47:43;;;;;;;5.20;2.10;;;13.50;99.90;;;;;;5094212;28;20043;-53
2023/09/25 05:50:09;;;;;;;2.42;1.25;;;13.50;99.90;;;;;;5093958;28;20024;-51
2023/09/25 05:52:37;;;;;;;2.78;1.77;;;13.50;99.90;;;;;;5094221;28;20357;-53
2023/09/25 05:55:04;;;;;;;1.95;0.90;;;13.50;99.90;;;;;;5094212;28;20039;-52
2023/09/25 05:57:31;;;;;;;2.65;1.05;;;13.50;99.90;;;;;;5094129;28;20093;-53
2023/09/25 05:59:57;;;;;;;2.47;1.00;;;13.50;99.90;;;;;;5093923;28;20431;-53
2023/09/25 06:02:22;;;;;;;1.70;1.00;;;13.50;99.90;;;;;;5094089;28;20024;-53
2023/09/25 06:04:48;;;;;;;2.47;1.10;;;13.50;99.90;;;;;;5093999;28;20477;-50
2023/09/25 06:07:14;;;;;;;3.58;1.00;;;13.50;99.90;;;;;;5093966;28;20036;-53
2023/09/25 06:09:40;;;;;;;2.10;1.30;;;13.50;99.90;;;;;;5093463;28;20031;-53
2023/09/25 06:12:05;;;;;;;1.95;1.10;;;13.60;99.90;;;;;;5093950;28;20113;-51
2023/09/25 06:14:31;;;;;;;1.92;1.15;;;13.70;99.90;;;;;;5093713;28;20488;-52
2023/09/25 06:16:59;;;;;;;2.30;1.00;;;13.70;99.90;;;;;;5093859;28;20476;-52
2023/09/25 06:19:25;;;;;;;2.60;0.88;;;13.70;99.90;;;;;;5093517;28;20058;-48
2023/09/25 06:21:51;;;;;;;1.35;0.82;;;13.80;99.90;;;;;;5093518;28;20031;-52
2023/09/25 06:24:17;;;;;;;2.25;1.10;;;13.90;99.90;;;;;;5093580;28;20036;-51
2023/09/25 06:26:46;;;;;;;2.63;1.13;;;13.90;99.90;;;;;;5093698;28;20034;-53
2023/09/25 06:29:13;;;;;;;3.60;1.42;;;14.00;99.90;;;;;;5093325;28;20044;-52
2023/09/25 06:31:39;;;;;;;2.88;1.00;;;14.00;99.90;;;;;;5093879;28;20059;-52
2023/09/25 06:34:07;;;;;;;2.35;1.00;;;14.10;99.90;;;;;;5093632;28;20331;-50
2023/09/25 06:36:33;;;;;;;1.35;0.80;;;14.20;99.90;;;;;;5093466;28;20508;-50
2023/09/25 06:38:59;;;;;;;1.75;0.80;;;14.20;99.90;;;;;;5093149;28;20020;-50
2023/09/25 06:41:26;;;;;;;1.50;0.75;;;14.20;99.90;;;;;;5093261;28;20431;-50
2023/09/25 06:43:51;;;;;;;1.92;1.10;;;14.30;99.90;;;;;;5093387;28;20028;-49
2023/09/25 06:46:17;;;;;;;1.45;0.80;;;14.40;99.90;;;;;;5093313;28;20031;-49
2023/09/25 06:48:42;;;;;;;1.40;0.85;;;14.40;99.90;;;;;;5093055;28;20153;-51
2023/09/25 06:51:09;;;;;;;1.33;0.82;;;14.50;99.90;;;;;;5058318;28;20036;-49
2023/09/25 06:53:34;;;;;;;1.95;0.90;;;14.60;99.90;;;;;;5092930;28;20499;-51
2023/09/25 06:56:00;;;;;;;2.67;0.90;;;14.70;99.90;;;;;;5093134;28;20127;-52
2023/09/25 06:58:26;;;;;;;1.77;0.90;;;14.70;99.90;;;;;;5092991;28;20039;-51
2023/09/25 07:00:51;;;;;;;1.80;0.85;;;14.80;99.90;;;;;;5092695;28;20043;-51
2023/09/25 07:03:17;;;;;;;1.40;0.98;;;14.80;99.90;;;;;;5093504;28;20166;-48
2023/09/25 07:05:44;;;;;;;1.98;1.10;;;14.90;99.90;;;;;;5093032;28;20039;-48
2023/09/25 07:08:11;;;;;;;3.92;1.20;;;14.90;99.90;;;;;;5092875;28;20039;-48
2023/09/25 07:10:37;;;;;;;3.72;1.30;;;15.00;99.90;;;;;;5092603;28;20062;-48
2023/09/25 07:13:03;;;;;;;3.85;1.13;;;15.10;99.90;;;;;;5092943;28;20047;-52
2023/09/25 07:15:30;;;;;;;4.72;2.08;;;15.10;99.90;;;;;;5092898;28;20040;-53
2023/09/25 07:17:56;;;;;;;3.60;1.58;;;15.20;99.90;;;;;;5093319;28;20362;-52
2023/09/25 07:20:21;;;;;;;2.03;0.93;;;15.40;99.90;;;;;;5074445;28;20066;-51
2023/09/25 07:22:47;;;;;;;1.70;0.80;;;15.40;99.90;;;;;;5057932;28;20448;-52
2023/09/25 07:25:14;;;;;;;1.67;0.80;;;15.50;99.90;;;;;;5093144;28;20117;-51
2023/09/25 07:27:40;;;;;;;2.65;0.98;;;15.50;99.90;;;;;;5093051;28;20036;-52
2023/09/25 07:30:08;;;;;;;1.25;0.77;;;15.60;99.90;;;;;;5092366;28;20373;-52
2023/09/25 07:32:33;;;;;;;2.35;0.80;;;15.70;99.90;;;;;;5092827;28;20086;-53
2023/09/25 07:34:59;;;;;;;1.83;1.00;;;15.80;99.90;;;;;;5092459;28;20040;-53
2023/09/25 07:37:25;;;;;;;2.38;0.90;;;16.00;99.90;;;;;;5092332;28;20031;-53
2023/09/25 07:39:51;;;;;;;2.53;1.10;;;16.00;99.90;;;;;;5091923;28;20036;-53
2023/09/25 07:42:17;;;;;;;2.30;1.05;;;16.10;99.90;;;;;;5092570;28;20073;-53
2023/09/25 07:44:42;;;;;;;4.18;0.93;;;16.10;99.90;;;;;;5092176;28;20480;-52
2023/09/25 07:47:12;;;;;;;1.90;0.90;;;16.10;99.90;;;;;;5092069;28;20036;-52
2023/09/25 07:49:41;;;;;;;;;;;16.20;99.90;;;;;;5092332;28;20445;-53
2023/09/25 07:52:15;;;;;;;2.17;1.13;;;16.20;99.90;;;;;;5073960;28;19908;-49
2023/09/25 07:54:45;;;;;;;4.28;1.40;;;16.40;99.90;;;;;;5091838;28;20031;-50
2023/09/25 07:57:14;;;;;;;1.70;0.80;;;16.40;99.90;;;;;;5091975;28;20103;-53
2023/09/25 07:59:44;;;;;;;3.58;1.83;;;16.50;99.90;;;;;;5091676;28;20127;-52
2023/09/25 08:02:12;;;;;;;4.90;2.33;;;16.60;99.90;;;;;;5091833;28;20035;-48
2023/09/25 08:04:37;;;;;;;3.35;1.27;;;16.60;99.90;;;;;;5091079;28;20104;-51
2023/09/25 08:07:03;;;;;;;3.50;1.55;;;16.70;99.90;;;;;;5091574;28;20676;-53
2023/09/25 08:09:29;;;;;;;2.20;1.10;;;16.70;99.90;;;;;;5091457;28;20038;-53
2023/09/25 08:11:55;;;;;;;2.22;1.10;;;16.80;99.90;;;;;;5091469;28;20043;-48
2023/09/25 08:14:21;;;;;;;3.20;1.30;;;16.80;99.90;;;;;;5091543;28;20402;-48
2023/09/25 08:16:46;;;;;;;1.88;1.00;;;16.90;99.90;;;;;;5091545;28;20097;-53
2023/09/25 08:19:12;;;;;;;3.88;1.45;;;17.00;99.90;;;;;;5091188;28;20027;-49
2023/09/25 08:21:38;;;;;;;3.65;1.08;;;17.10;99.90;;;;;;5091323;28;20103;-53
2023/09/25 08:24:04;;;;;;;1.92;1.00;;;17.20;99.90;;;;;;5091327;28;20483;-50
2023/09/25 08:26:29;;;;;;;2.22;1.08;;;17.20;99.90;;;;;;5073340;28;20028;-52
2023/09/25 08:29:00;;;;;;;1.73;0.98;;;17.30;99.90;;;;;;5091301;28;20103;-52
2023/09/25 08:31:26;;;;;;;2.42;0.95;;;17.30;99.90;;;;;;5072835;28;20146;-52
2023/09/25 08:33:51;;;;;;;3.28;1.27;;;17.40;99.90;;;;;;5091093;28;20032;-49
2023/09/25 08:36:17;;;;;;;5.07;2.03;;;17.50;99.90;;;;;;5091295;28;20020;-52
2023/09/25 08:38:42;;;;;;;2.03;0.77;;;17.60;99.90;;;;;;5072680;28;20058;-52
2023/09/25 08:41:10;;;;;;;2.05;0.82;;;17.70;99.90;;;;;;5091017;28;20476;-53
2023/09/25 08:43:37;;;;;;;1.98;1.08;;;17.80;99.90;;;;;;5091172;28;20407;-53
2023/09/25 08:46:03;;;;;;;2.53;0.80;;;17.80;99.90;;;;;;5091021;28;20373;-53
2023/09/25 08:48:29;;;;;;;1.98;1.00;;;17.90;99.90;;;;;;5090701;28;20054;-54
2023/09/25 08:50:54;;;;;;;2.95;0.95;;;18.00;99.90;;;;;;5090643;28;20035;-51
2023/09/25 08:53:20;;;;;;;2.67;0.95;;;18.00;99.90;;;;;;5072762;28;20027;-53
2023/09/25 08:55:46;;;;;;;2.30;1.20;;;18.00;99.90;;;;;;5090843;28;20028;-53
2023/09/25 08:58:13;;;;;;;4.10;1.33;;;18.10;99.90;;;;;;5090803;28;20441;-53
2023/09/25 09:00:40;;;;;;;2.10;1.00;;;18.10;99.90;;;;;;5090496;28;20031;-54
2023/09/25 09:03:06;;;;;;;3.05;1.00;;;18.20;99.90;;;;;;5090837;28;20152;-54
2023/09/25 09:05:31;;;;;;;2.08;0.75;;;18.40;99.90;;;;;;5090703;28;20528;-52
2023/09/25 09:08:05;;;;;;;2.10;1.10;;;18.50;99.90;;;;;;5090547;28;20043;-54
2023/09/25 09:10:39;;;;;;;3.42;1.10;;;18.70;99.90;;;;;;5090400;28;20028;-53
2023/09/25 09:13:11;;;;;;;3.33;1.02;;;18.80;99.90;;;;;;5090608;28;20042;-54
2023/09/25 09:15:39;;;;;;;4.32;1.10;;;18.80;99.90;;;;;;5090766;28;20030;-54
2023/09/25 09:18:21;;;;;;;2.55;0.80;;;18.90;99.90;;;;;;5097145;28;20035;-53
2023/09/25 09:20:48;;;;;;;5.70;1.08;;;18.90;99.90;;;;;;5097190;28;20096;-50
2023/09/25 09:23:15;;;;;;;2.15;1.10;;;19.00;99.90;;;;;;5097451;28;20028;-53
2023/09/25 09:25:46;;;;;;;2.60;1.08;;;19.00;99.90;;;;;;5097375;28;20050;-53
2023/09/25 09:28:13;;;;;;;3.92;1.23;;;19.00;99.90;;;;;;5097452;28;20031;-53
2023/09/25 09:30:39;;;;;;;3.28;0.80;;;19.00;99.90;;;;;;5096927;28;20032;-51
2023/09/25 09:33:08;;;;;;;3.15;0.98;;;19.00;99.90;;;;;;5097161;28;20105;-53
2023/09/25 09:35:34;;;;;;;2.22;1.00;;;19.10;99.90;;;;;;5097194;28;20036;-52
2023/09/25 09:38:02;;;;;;;2.92;0.80;;;19.20;99.90;;;;;;5097206;28;20043;-53
2023/09/25 09:40:28;;;;;;;1.88;0.80;;;19.40;99.90;;;;;;5096844;28;20107;-52
2023/09/25 09:42:54;;;;;;;2.95;1.00;;;19.40;99.90;;;;;;5078932;28;20029;-54
2023/09/25 09:45:21;;;;;;;2.28;0.95;;;19.60;99.90;;;;;;5097622;28;20028;-53
2023/09/25 09:47:49;;;;;;;2.35;1.08;;;19.50;99.60;;;;;;5097010;28;20098;-52
2023/09/25 09:50:20;;;;;;;1.88;0.88;;;19.60;99.90;;;;;;5096703;28;20110;-54
2023/09/25 09:52:46;;;;;;;2.35;1.15;;;19.80;99.50;;;;;;5097129;28;20059;-53
2023/09/25 09:55:14;;;;;;;2.63;1.00;;;19.80;99.20;;;;;;5097378;28;20110;-54
2023/09/25 09:57:40;;;;;;;3.03;0.90;;;20.00;99.10;;;;;;5096961;28;20060;-53
2023/09/25 10:00:07;;;;;;;2.65;0.90;;;20.10;98.20;;;;;;5096946;28;20059;-54
2023/09/25 10:02:38;;;;;;;2.67;1.20;;;20.30;98.40;;;;;;5097222;28;20602;-53
2023/09/25 10:05:05;;;;;;;2.47;1.05;;;20.50;98.40;;;;;;5096907;28;20115;-53
2023/09/25 10:07:31;;;;;;;2.13;0.80;;;20.70;97.90;;;;;;5096997;28;20031;-51
2023/09/25 10:09:58;;;;;;;1.90;1.00;;;20.90;97.20;;;;;;5096669;28;20028;-53
2023/09/25 10:12:57;;;;;;;3.35;0.90;;;20.80;97.10;;;;;;5096832;28;20061;-53
2023/09/25 10:15:25;;;;;;;2.78;1.00;;;21.10;97.00;;;;;;5062870;28;20051;-53
2023/09/25 10:17:52;;;;;;;2.58;1.02;;;21.40;95.70;;;;;;5097052;28;20131;-54
2023/09/25 10:20:38;;;;;;;2.28;1.00;;;21.90;95.70;;;;;;5096721;28;20301;-52
2023/09/25 10:23:06;;;;;;;2.28;1.10;;;22.30;95.10;;;;;;5097209;28;20043;-48
2023/09/25 10:25:57;;;;;;;1.63;0.80;;;22.70;94.10;;;;;;5097138;28;20119;-49
2023/09/25 10:28:26;;;;;;;2.97;1.15;;;23.00;94.00;;;;;;5094491;28;20068;-49
2023/09/25 10:30:55;;;;;;;;;;;23.70;93.70;;;;;;5094136;28;20438;-49
2023/09/25 10:33:21;;;;;;;2.08;1.00;;;24.60;91.80;;;;;;5093571;28;20299;-49
2023/09/25 10:35:49;;;;;;;1.75;0.90;;;25.30;90.40;;;;;;5093488;28;20065;-49
2023/09/25 10:38:21;;;;;;;3.75;1.60;;;25.70;85.90;;;;;;5093926;28;20097;-52
2023/09/25 10:40:49;;;;;;;3.00;1.13;;;25.60;86.10;;;;;;5093196;28;20539;-51
2023/09/25 10:43:17;;;;;;;4.40;0.90;;;25.70;85.90;;;;;;5093439;28;20059;-50
2023/09/25 10:45:42;;;;;;;1.48;0.98;;;25.60;85.00;;;;;;5075106;28;20508;-54
2023/09/25 10:48:09;;;;;;;1.85;1.08;;;25.00;84.90;;;;;;5093501;28;20023;-50
2023/09/25 10:50:37;;;;;;;3.72;1.10;;;24.60;86.70;;;;;;5093043;28;20466;-53
2023/09/25 10:53:05;;;;;;;1.38;0.98;;;24.10;87.30;;;;;;5093397;28;20032;-49
2023/09/25 10:55:32;;;;;;;2.00;1.00;;;23.70;90.00;;;;;;5093119;28;20082;-54
2023/09/25 10:57:58;;;;;;;2.40;1.00;;;23.40;90.20;;;;;;5093060;28;20075;-53
2023/09/25 11:00:25;;;;;;;2.00;0.82;;;23.10;90.20;;;;;;5092604;28;20066;-52
2023/09/25 11:02:51;;;;;;;2.80;1.30;;;22.80;90.90;;;;;;5093301;28;20134;-50
2023/09/25 11:05:17;;;;;;;1.75;0.80;;;22.70;92.00;;;;;;5093015;28;20452;-48
2023/09/25 11:07:43;;;;;;;1.75;0.70;;;22.50;91.10;;;;;;5092962;28;20060;-52
2023/09/25 11:10:10;;;;;;;4.15;1.20;;;22.30;90.40;;;;;;5092589;28;20126;-53
2023/09/25 11:12:36;;;;;;;2.00;1.05;;;22.00;91.40;;;;;;5093201;28;20479;-54
2023/09/25 11:15:09;;;;;;;2.22;1.00;;;22.00;91.80;;;;;;5092601;28;20078;-55
2023/09/25 11:17:34;;;;;;;1.55;0.80;;;22.00;92.60;;;;;;5092706;28;20541;-54
2023/09/25 11:20:16;;;;;;;2.40;1.13;;;22.10;92.30;;;;;;5092199;28;20056;-54
2023/09/25 11:22:42;;;;;;;3.03;0.68;;;22.20;91.90;;;;;;5074733;28;20020;-54
2023/09/25 11:25:12;;;;;;;4.07;1.35;;;22.10;93.00;;;;;;5092657;28;20503;-51
2023/09/25 11:27:39;;;;;;;5.30;1.35;;;22.30;93.00;;;;;;5092381;28;20036;-53
2023/09/25 11:30:14;;;;;;;1.88;0.80;;;22.30;91.70;;;;;;5092020;28;20555;-51
2023/09/25 11:32:42;;;;;;;1.92;1.00;;;22.40;90.70;;;;;;5092433;28;20032;-53
2023/09/25 11:35:12;;;;;;;1.08;0.75;;;22.60;91.10;;;;;;5092284;28;20539;-53
2023/09/25 11:37:53;;;;;;;4.53;1.10;;;22.60;90.30;;;;;;5092149;28;20031;-49
2023/09/25 11:40:20;;;;;;;0.90;0.57;;;22.70;90.50;;;;;;5090820;28;20028;-53
2023/09/25 11:42:46;;;;;;;4.47;1.00;;;22.70;90.60;;;;;;5092240;28;20032;-52
2023/09/25 11:45:14;;;;;;;1.20;0.80;;;22.80;90.90;;;;;;5092292;28;20117;-54
2023/09/25 11:47:40;;;;;;;1.35;0.82;;;22.90;90.00;;;;;;5092057;28;20035;-54
2023/09/25 11:50:06;;;;;;;2.60;1.25;;;22.90;89.90;;;;;;5092194;28;20123;-53
2023/09/25 11:52:32;;;;;;;2.88;1.27;;;22.90;90.80;;;;;;5091980;28;20269;-54
2023/09/25 11:54:59;;;;;;;2.90;0.93;;;22.90;90.30;;;;;;5091949;28;20035;-54
2023/09/25 11:57:26;;;;;;;2.83;0.80;;;22.70;89.80;;;;;;5091935;28;20050;-53
2023/09/25 11:59:52;;;;;;;3.22;0.90;;;22.80;90.50;;;;;;5073528;28;20063;-50
2023/09/25 12:02:18;;;;;;;1.73;0.90;;;22.80;90.20;;;;;;5091967;28;20042;-51
2023/09/25 12:04:45;;;;;;;2.08;1.08;;;22.70;89.60;;;;;;5092093;28;20028;-51
2023/09/25 12:07:11;;;;;;;3.10;1.20;;;22.90;88.60;;;;;;5092009;28;20028;-53
2023/09/25 12:09:36;;;;;;;1.63;0.95;;;22.90;89.50;;;;;;5091699;28;20077;-54
2023/09/25 12:12:03;;;;;;;1.20;0.70;;;22.70;88.40;;;;;;5091555;28;20589;-53
2023/09/25 12:14:28;;;;;;;1.27;0.80;;;22.70;88.10;;;;;;5091683;28;20483;-53
2023/09/25 12:16:54;;;;;;;1.52;0.82;;;22.70;89.70;;;;;;5091612;28;20070;-53
2023/09/25 12:19:19;;;;;;;2.85;1.00;;;22.90;88.90;;;;;;5091362;28;20031;-54
2023/09/25 12:21:45;;;;;;;1.70;0.90;;;22.90;90.00;;;;;;5073260;28;20032;-54
2023/09/25 12:24:11;;;;;;;1.77;0.90;;;23.00;89.30;;;;;;5091403;28;20370;-54
2023/09/25 12:26:37;;;;;;;1.67;0.80;;;23.00;88.40;;;;;;5073278;28;20047;-54
2023/09/25 12:29:02;;;;;;;2.95;1.00;;;23.00;86.00;;;;;;5091393;28;20035;-49
2023/09/25 12:31:28;;;;;;;4.93;1.10;;;23.20;84.90;;;;;;5091303;28;20028;-49
2023/09/25 12:33:54;;;;;;;2.95;1.00;;;23.10;83.40;;;;;;5091548;28;20027;-49
2023/09/25 12:36:20;;;;;;;3.35;1.10;;;23.10;85.30;;;;;;5091687;28;20036;-52
2023/09/25 12:38:45;;;;;;;1.38;0.82;;;23.00;86.70;;;;;;5090924;28;20035;-50
2023/09/25 12:41:11;;;;;;;2.40;0.90;;;22.80;87.70;;;;;;5090907;28;20024;-53
2023/09/25 12:43:37;;;;;;;2.85;1.35;;;22.70;88.70;;;;;;5091670;28;20427;-53
2023/09/25 12:46:03;;;;;;;2.75;0.98;;;22.80;84.50;;;;;;5091207;28;20035;-54